sensor_id;sensor_type;location;lat;lon;timestamp;P1;durP1;ratioP1;P2;durP2;ratioP2
47760;SDS011;33524;55.434;38.520;2022-12-18T00:00:10;2.95;;;2.33;;
47760;SDS011;33524;55.434;38.520;2022-12-18T00:02:39;6.85;;;4.15;;
47760;SDS011;33524;55.434;38.520;2022-12-18T00:05:08;2.80;;;2.47;;
47760;SDS011;33524;55.434;38.520;2022-12-18T00:07:36;11.18;;;5.37;;
47760;SDS011;33524;55.434;38.520;2022-12-18T00:10:04;8.27;;;5.15;;
47760;SDS011;33524;55.434;38.520;2022-12-18T00:12:33;4.40;;;2.97;;
47760;SDS011;33524;55.434;38.520;2022-12-18T00:15:01;3.15;;;1.77;;
47760;SDS011;33524;55.434;38.520;2022-12-18T00:17:29;7.05;;;3.85;;
47760;SDS011;33524;55.434;38.520;2022-12-18T00:19:57;8.90;;;4.07;;
47760;SDS011;33524;55.434;38.520;2022-12-18T00:22:25;4.12;;;3.00;;
47760;SDS011;33524;55.434;38.520;2022-12-18T00:24:53;1.83;;;1.52;;
47760;SDS011;33524;55.434;38.520;2022-12-18T00:27:21;2.53;;;1.95;;
47760;SDS011;33524;55.434;38.520;2022-12-18T00:29:49;2.53;;;1.37;;
47760;SDS011;33524;55.434;38.520;2022-12-18T00:32:17;3.50;;;2.83;;
47760;SDS011;33524;55.434;38.520;2022-12-18T00:34:46;2.95;;;1.90;;
47760;SDS011;33524;55.434;38.520;2022-12-18T00:37:14;0.60;;;0.60;;
47760;SDS011;33524;55.434;38.520;2022-12-18T00:39:50;2.58;;;2.40;;
47760;SDS011;33524;55.434;38.520;2022-12-18T00:42:18;6.43;;;5.87;;
47760;SDS011;33524;55.434;38.520;2022-12-18T00:45:05;5.85;;;3.17;;
47760;SDS011;33524;55.434;38.520;2022-12-18T00:47:39;5.32;;;4.82;;
47760;SDS011;33524;55.434;38.520;2022-12-18T00:50:08;2.70;;;2.58;;
47760;SDS011;33524;55.434;38.520;2022-12-18T00:52:36;3.20;;;2.35;;
47760;SDS011;33524;55.434;38.520;2022-12-18T00:55:04;2.65;;;1.55;;
47760;SDS011;33524;55.434;38.520;2022-12-18T00:57:33;5.22;;;4.10;;
47760;SDS011;33524;55.434;38.520;2022-12-18T01:00:01;1.83;;;1.73;;
47760;SDS011;33524;55.434;38.520;2022-12-18T01:02:31;2.00;;;1.30;;
47760;SDS011;33524;55.434;38.520;2022-12-18T01:04:59;7.05;;;2.62;;
47760;SDS011;33524;55.434;38.520;2022-12-18T01:07:29;2.20;;;2.08;;
47760;SDS011;33524;55.434;38.520;2022-12-18T01:09:56;0.88;;;0.88;;
47760;SDS011;33524;55.434;38.520;2022-12-18T01:12:25;1.48;;;1.20;;
47760;SDS011;33524;55.434;38.520;2022-12-18T01:14:53;3.08;;;2.83;;
47760;SDS011;33524;55.434;38.520;2022-12-18T01:17:21;3.58;;;2.97;;
47760;SDS011;33524;55.434;38.520;2022-12-18T01:19:49;1.73;;;1.55;;
47760;SDS011;33524;55.434;38.520;2022-12-18T01:22:17;8.60;;;3.83;;
47760;SDS011;33524;55.434;38.520;2022-12-18T01:24:48;9.00;;;5.03;;
47760;SDS011;33524;55.434;38.520;2022-12-18T01:27:17;3.97;;;2.20;;
47760;SDS011;33524;55.434;38.520;2022-12-18T01:29:45;5.25;;;2.95;;
47760;SDS011;33524;55.434;38.520;2022-12-18T01:32:12;4.05;;;2.50;;
47760;SDS011;33524;55.434;38.520;2022-12-18T01:34:41;2.62;;;2.00;;
47760;SDS011;33524;55.434;38.520;2022-12-18T01:37:09;3.22;;;1.87;;
47760;SDS011;33524;55.434;38.520;2022-12-18T01:39:37;8.80;;;2.72;;
47760;SDS011;33524;55.434;38.520;2022-12-18T01:42:10;11.90;;;2.40;;
47760;SDS011;33524;55.434;38.520;2022-12-18T01:53:13;3.60;;;3.30;;
47760;SDS011;33524;55.434;38.520;2022-12-18T01:55:46;2.03;;;1.87;;
47760;SDS011;33524;55.434;38.520;2022-12-18T01:58:35;4.15;;;2.33;;
47760;SDS011;33524;55.434;38.520;2022-12-18T02:01:11;3.10;;;1.95;;
47760;SDS011;33524;55.434;38.520;2022-12-18T02:03:43;1.70;;;1.60;;
47760;SDS011;33524;55.434;38.520;2022-12-18T02:06:27;2.45;;;2.30;;
47760;SDS011;33524;55.434;38.520;2022-12-18T02:09:12;5.57;;;2.83;;
47760;SDS011;33524;55.434;38.520;2022-12-18T02:17:21;4.45;;;2.83;;
47760;SDS011;33524;55.434;38.520;2022-12-18T02:19:58;2.10;;;1.33;;
47760;SDS011;33524;55.434;38.520;2022-12-18T02:25:29;7.15;;;4.50;;
47760;SDS011;33524;55.434;38.520;2022-12-18T02:28:06;4.12;;;2.20;;
47760;SDS011;33524;55.434;38.520;2022-12-18T02:30:44;4.35;;;3.10;;
47760;SDS011;33524;55.434;38.520;2022-12-18T02:33:16;1.87;;;1.80;;
47760;SDS011;33524;55.434;38.520;2022-12-18T02:35:51;4.30;;;3.35;;
47760;SDS011;33524;55.434;38.520;2022-12-18T02:38:22;7.10;;;5.12;;
47760;SDS011;33524;55.434;38.520;2022-12-18T02:40:53;2.37;;;1.62;;
47760;SDS011;33524;55.434;38.520;2022-12-18T02:43:22;5.30;;;3.78;;
47760;SDS011;33524;55.434;38.520;2022-12-18T02:45:54;4.60;;;2.85;;
47760;SDS011;33524;55.434;38.520;2022-12-18T02:48:32;7.55;;;3.05;;
47760;SDS011;33524;55.434;38.520;2022-12-18T02:51:11;4.45;;;3.17;;
47760;SDS011;33524;55.434;38.520;2022-12-18T02:54:09;9.80;;;5.03;;
47760;SDS011;33524;55.434;38.520;2022-12-18T02:56:38;2.75;;;1.67;;
47760;SDS011;33524;55.434;38.520;2022-12-18T02:59:23;2.97;;;2.40;;
47760;SDS011;33524;55.434;38.520;2022-12-18T03:02:10;1.25;;;1.25;;
47760;SDS011;33524;55.434;38.520;2022-12-18T03:05:01;4.07;;;2.90;;
47760;SDS011;33524;55.434;38.520;2022-12-18T03:10:28;3.40;;;2.35;;
47760;SDS011;33524;55.434;38.520;2022-12-18T03:13:06;3.12;;;2.55;;
47760;SDS011;33524;55.434;38.520;2022-12-18T03:15:42;7.85;;;3.30;;
47760;SDS011;33524;55.434;38.520;2022-12-18T03:18:17;2.40;;;2.30;;
47760;SDS011;33524;55.434;38.520;2022-12-18T03:20:51;1.05;;;1.05;;
47760;SDS011;33524;55.434;38.520;2022-12-18T03:23:25;7.15;;;3.75;;
47760;SDS011;33524;55.434;38.520;2022-12-18T03:25:59;3.20;;;2.50;;
47760;SDS011;33524;55.434;38.520;2022-12-18T03:28:37;6.25;;;4.28;;
47760;SDS011;33524;55.434;38.520;2022-12-18T03:31:10;5.20;;;2.75;;
47760;SDS011;33524;55.434;38.520;2022-12-18T03:33:42;2.45;;;2.30;;
47760;SDS011;33524;55.434;38.520;2022-12-18T03:36:14;5.93;;;3.20;;
47760;SDS011;33524;55.434;38.520;2022-12-18T03:38:42;2.72;;;2.28;;
47760;SDS011;33524;55.434;38.520;2022-12-18T03:44:01;6.20;;;2.97;;
47760;SDS011;33524;55.434;38.520;2022-12-18T03:46:33;5.80;;;3.95;;
47760;SDS011;33524;55.434;38.520;2022-12-18T03:49:15;1.90;;;1.77;;
47760;SDS011;33524;55.434;38.520;2022-12-18T03:52:11;3.17;;;2.37;;
47760;SDS011;33524;55.434;38.520;2022-12-18T03:54:46;2.50;;;1.87;;
47760;SDS011;33524;55.434;38.520;2022-12-18T03:57:19;7.05;;;3.37;;
47760;SDS011;33524;55.434;38.520;2022-12-18T03:59:52;6.60;;;3.42;;
47760;SDS011;33524;55.434;38.520;2022-12-18T04:02:24;9.15;;;3.67;;
47760;SDS011;33524;55.434;38.520;2022-12-18T04:04:55;2.75;;;2.45;;
47760;SDS011;33524;55.434;38.520;2022-12-18T04:07:29;8.52;;;5.30;;
47760;SDS011;33524;55.434;38.520;2022-12-18T04:09:58;1.08;;;1.00;;
47760;SDS011;33524;55.434;38.520;2022-12-18T04:12:29;9.40;;;4.03;;
47760;SDS011;33524;55.434;38.520;2022-12-18T04:15:01;7.55;;;4.28;;
47760;SDS011;33524;55.434;38.520;2022-12-18T04:17:30;3.83;;;2.42;;
47760;SDS011;33524;55.434;38.520;2022-12-18T04:19:58;7.55;;;3.20;;
47760;SDS011;33524;55.434;38.520;2022-12-18T04:22:26;9.65;;;4.68;;
47760;SDS011;33524;55.434;38.520;2022-12-18T04:24:58;10.07;;;5.40;;
47760;SDS011;33524;55.434;38.520;2022-12-18T04:27:28;5.68;;;2.65;;
47760;SDS011;33524;55.434;38.520;2022-12-18T04:29:58;4.90;;;3.42;;
47760;SDS011;33524;55.434;38.520;2022-12-18T04:32:26;1.85;;;1.52;;
47760;SDS011;33524;55.434;38.520;2022-12-18T04:34:54;3.35;;;2.85;;
47760;SDS011;33524;55.434;38.520;2022-12-18T04:37:22;3.12;;;2.85;;
47760;SDS011;33524;55.434;38.520;2022-12-18T04:39:51;4.82;;;3.20;;
47760;SDS011;33524;55.434;38.520;2022-12-18T04:42:20;5.97;;;3.42;;
47760;SDS011;33524;55.434;38.520;2022-12-18T04:44:47;3.40;;;2.62;;
47760;SDS011;33524;55.434;38.520;2022-12-18T04:47:16;4.25;;;3.35;;
47760;SDS011;33524;55.434;38.520;2022-12-18T04:49:44;2.92;;;2.72;;
47760;SDS011;33524;55.434;38.520;2022-12-18T04:52:12;4.37;;;2.37;;
47760;SDS011;33524;55.434;38.520;2022-12-18T04:54:40;6.05;;;2.95;;
47760;SDS011;33524;55.434;38.520;2022-12-18T04:57:08;1.50;;;1.45;;
47760;SDS011;33524;55.434;38.520;2022-12-18T04:59:36;1.90;;;1.77;;
47760;SDS011;33524;55.434;38.520;2022-12-18T05:02:04;1.95;;;1.85;;
47760;SDS011;33524;55.434;38.520;2022-12-18T05:04:32;8.15;;;3.40;;
47760;SDS011;33524;55.434;38.520;2022-12-18T05:07:00;4.70;;;2.47;;
47760;SDS011;33524;55.434;38.520;2022-12-18T05:09:28;10.07;;;4.50;;
47760;SDS011;33524;55.434;38.520;2022-12-18T05:11:56;5.80;;;4.40;;
47760;SDS011;33524;55.434;38.520;2022-12-18T05:14:24;9.38;;;5.07;;
47760;SDS011;33524;55.434;38.520;2022-12-18T05:16:52;2.10;;;1.55;;
47760;SDS011;33524;55.434;38.520;2022-12-18T05:19:27;4.55;;;3.10;;
47760;SDS011;33524;55.434;38.520;2022-12-18T05:21:55;6.78;;;4.70;;
47760;SDS011;33524;55.434;38.520;2022-12-18T05:24:23;2.95;;;1.62;;
47760;SDS011;33524;55.434;38.520;2022-12-18T05:26:51;13.70;;;4.65;;
47760;SDS011;33524;55.434;38.520;2022-12-18T05:29:19;10.15;;;6.43;;
47760;SDS011;33524;55.434;38.520;2022-12-18T05:31:47;6.93;;;4.28;;
47760;SDS011;33524;55.434;38.520;2022-12-18T05:34:16;5.55;;;3.45;;
47760;SDS011;33524;55.434;38.520;2022-12-18T05:36:43;4.87;;;3.78;;
47760;SDS011;33524;55.434;38.520;2022-12-18T05:39:11;3.65;;;2.58;;
47760;SDS011;33524;55.434;38.520;2022-12-18T05:41:39;8.38;;;4.82;;
47760;SDS011;33524;55.434;38.520;2022-12-18T05:44:08;8.88;;;4.53;;
47760;SDS011;33524;55.434;38.520;2022-12-18T05:46:36;6.35;;;3.50;;
47760;SDS011;33524;55.434;38.520;2022-12-18T05:49:04;5.87;;;3.40;;
47760;SDS011;33524;55.434;38.520;2022-12-18T05:51:32;4.20;;;2.72;;
47760;SDS011;33524;55.434;38.520;2022-12-18T05:54:00;4.62;;;4.00;;
47760;SDS011;33524;55.434;38.520;2022-12-18T05:56:28;5.30;;;3.33;;
47760;SDS011;33524;55.434;38.520;2022-12-18T05:58:56;6.03;;;2.70;;
47760;SDS011;33524;55.434;38.520;2022-12-18T06:01:25;3.25;;;2.47;;
47760;SDS011;33524;55.434;38.520;2022-12-18T06:03:54;6.93;;;5.25;;
47760;SDS011;33524;55.434;38.520;2022-12-18T06:06:24;5.18;;;3.62;;
47760;SDS011;33524;55.434;38.520;2022-12-18T06:08:53;8.15;;;4.20;;
47760;SDS011;33524;55.434;38.520;2022-12-18T06:11:23;3.08;;;1.77;;
47760;SDS011;33524;55.434;38.520;2022-12-18T06:13:54;4.93;;;3.62;;
47760;SDS011;33524;55.434;38.520;2022-12-18T06:16:26;2.37;;;2.03;;
47760;SDS011;33524;55.434;38.520;2022-12-18T06:18:58;2.03;;;1.48;;
47760;SDS011;33524;55.434;38.520;2022-12-18T06:21:27;12.85;;;5.68;;
47760;SDS011;33524;55.434;38.520;2022-12-18T06:23:57;7.45;;;6.43;;
47760;SDS011;33524;55.434;38.520;2022-12-18T06:26:25;6.62;;;4.62;;
47760;SDS011;33524;55.434;38.520;2022-12-18T06:28:55;7.15;;;4.87;;
47760;SDS011;33524;55.434;38.520;2022-12-18T06:31:23;9.57;;;5.70;;
47760;SDS011;33524;55.434;38.520;2022-12-18T06:33:51;9.98;;;4.75;;
47760;SDS011;33524;55.434;38.520;2022-12-18T06:36:20;5.78;;;3.53;;
47760;SDS011;33524;55.434;38.520;2022-12-18T06:38:48;3.92;;;3.28;;
47760;SDS011;33524;55.434;38.520;2022-12-18T06:41:17;8.07;;;5.30;;
47760;SDS011;33524;55.434;38.520;2022-12-18T06:43:47;9.95;;;4.95;;
47760;SDS011;33524;55.434;38.520;2022-12-18T06:46:15;6.82;;;3.67;;
47760;SDS011;33524;55.434;38.520;2022-12-18T06:48:45;7.90;;;4.65;;
47760;SDS011;33524;55.434;38.520;2022-12-18T06:51:23;4.70;;;3.15;;
47760;SDS011;33524;55.434;38.520;2022-12-18T06:53:51;4.97;;;3.35;;
47760;SDS011;33524;55.434;38.520;2022-12-18T06:56:23;8.40;;;5.25;;
47760;SDS011;33524;55.434;38.520;2022-12-18T06:58:50;6.55;;;4.57;;
47760;SDS011;33524;55.434;38.520;2022-12-18T07:01:22;9.02;;;4.97;;
47760;SDS011;33524;55.434;38.520;2022-12-18T07:03:54;6.47;;;3.15;;
47760;SDS011;33524;55.434;38.520;2022-12-18T07:06:24;5.45;;;2.53;;
47760;SDS011;33524;55.434;38.520;2022-12-18T07:08:53;5.40;;;3.87;;
47760;SDS011;33524;55.434;38.520;2022-12-18T07:11:23;10.98;;;6.47;;
47760;SDS011;33524;55.434;38.520;2022-12-18T07:13:52;7.32;;;4.78;;
47760;SDS011;33524;55.434;38.520;2022-12-18T07:16:26;7.12;;;2.45;;
47760;SDS011;33524;55.434;38.520;2022-12-18T07:18:56;9.32;;;5.50;;
47760;SDS011;33524;55.434;38.520;2022-12-18T07:21:24;5.12;;;3.28;;
47760;SDS011;33524;55.434;38.520;2022-12-18T07:23:52;7.95;;;4.22;;
47760;SDS011;33524;55.434;38.520;2022-12-18T07:26:20;3.97;;;2.12;;
47760;SDS011;33524;55.434;38.520;2022-12-18T07:28:49;7.95;;;3.80;;
47760;SDS011;33524;55.434;38.520;2022-12-18T07:31:18;10.35;;;5.30;;
47760;SDS011;33524;55.434;38.520;2022-12-18T07:33:48;5.00;;;2.50;;
47760;SDS011;33524;55.434;38.520;2022-12-18T07:36:17;10.63;;;4.03;;
47760;SDS011;33524;55.434;38.520;2022-12-18T07:38:49;6.80;;;2.45;;
47760;SDS011;33524;55.434;38.520;2022-12-18T07:41:19;7.07;;;4.45;;
47760;SDS011;33524;55.434;38.520;2022-12-18T07:43:48;6.05;;;3.87;;
47760;SDS011;33524;55.434;38.520;2022-12-18T07:46:18;7.68;;;3.92;;
47760;SDS011;33524;55.434;38.520;2022-12-18T07:48:47;5.40;;;3.70;;
47760;SDS011;33524;55.434;38.520;2022-12-18T07:51:19;7.82;;;3.90;;
47760;SDS011;33524;55.434;38.520;2022-12-18T07:53:47;8.63;;;3.85;;
47760;SDS011;33524;55.434;38.520;2022-12-18T07:56:21;7.25;;;4.70;;
47760;SDS011;33524;55.434;38.520;2022-12-18T07:58:56;7.62;;;3.05;;
47760;SDS011;33524;55.434;38.520;2022-12-18T08:01:24;5.03;;;2.87;;
47760;SDS011;33524;55.434;38.520;2022-12-18T08:03:53;6.97;;;3.80;;
47760;SDS011;33524;55.434;38.520;2022-12-18T08:06:22;8.45;;;4.28;;
47760;SDS011;33524;55.434;38.520;2022-12-18T08:08:51;5.47;;;4.55;;
47760;SDS011;33524;55.434;38.520;2022-12-18T08:11:21;7.10;;;3.78;;
47760;SDS011;33524;55.434;38.520;2022-12-18T08:13:50;8.57;;;4.25;;
47760;SDS011;33524;55.434;38.520;2022-12-18T08:16:19;9.73;;;4.55;;
47760;SDS011;33524;55.434;38.520;2022-12-18T08:18:48;8.32;;;5.12;;
47760;SDS011;33524;55.434;38.520;2022-12-18T08:21:18;5.55;;;3.58;;
47760;SDS011;33524;55.434;38.520;2022-12-18T08:23:50;8.48;;;4.97;;
47760;SDS011;33524;55.434;38.520;2022-12-18T08:26:20;11.32;;;4.47;;
47760;SDS011;33524;55.434;38.520;2022-12-18T08:28:48;8.95;;;4.00;;
47760;SDS011;33524;55.434;38.520;2022-12-18T08:31:17;6.12;;;3.42;;
47760;SDS011;33524;55.434;38.520;2022-12-18T08:33:50;6.55;;;3.90;;
47760;SDS011;33524;55.434;38.520;2022-12-18T08:36:21;7.45;;;3.42;;
47760;SDS011;33524;55.434;38.520;2022-12-18T08:38:50;10.02;;;4.70;;
47760;SDS011;33524;55.434;38.520;2022-12-18T08:41:18;8.40;;;4.62;;
47760;SDS011;33524;55.434;38.520;2022-12-18T08:43:47;10.55;;;5.32;;
47760;SDS011;33524;55.434;38.520;2022-12-18T08:46:34;8.10;;;5.40;;
47760;SDS011;33524;55.434;38.520;2022-12-18T08:49:07;10.25;;;5.28;;
47760;SDS011;33524;55.434;38.520;2022-12-18T08:51:36;7.45;;;4.07;;
47760;SDS011;33524;55.434;38.520;2022-12-18T08:54:05;10.32;;;4.20;;
47760;SDS011;33524;55.434;38.520;2022-12-18T08:56:34;7.95;;;4.35;;
47760;SDS011;33524;55.434;38.520;2022-12-18T08:59:02;11.80;;;5.97;;
47760;SDS011;33524;55.434;38.520;2022-12-18T09:01:30;14.40;;;6.00;;
47760;SDS011;33524;55.434;38.520;2022-12-18T09:03:59;11.90;;;6.87;;
47760;SDS011;33524;55.434;38.520;2022-12-18T09:06:27;12.02;;;6.80;;
47760;SDS011;33524;55.434;38.520;2022-12-18T09:08:55;9.60;;;5.60;;
47760;SDS011;33524;55.434;38.520;2022-12-18T09:11:25;6.43;;;3.78;;
47760;SDS011;33524;55.434;38.520;2022-12-18T09:13:54;11.07;;;5.18;;
47760;SDS011;33524;55.434;38.520;2022-12-18T09:16:23;10.68;;;5.75;;
47760;SDS011;33524;55.434;38.520;2022-12-18T09:18:59;12.20;;;7.78;;
47760;SDS011;33524;55.434;38.520;2022-12-18T09:21:30;10.45;;;5.68;;
47760;SDS011;33524;55.434;38.520;2022-12-18T09:24:03;11.55;;;6.00;;
47760;SDS011;33524;55.434;38.520;2022-12-18T09:26:35;11.07;;;7.25;;
47760;SDS011;33524;55.434;38.520;2022-12-18T09:29:04;12.45;;;7.53;;
47760;SDS011;33524;55.434;38.520;2022-12-18T09:31:35;12.30;;;7.10;;
47760;SDS011;33524;55.434;38.520;2022-12-18T09:34:03;11.18;;;6.47;;
47760;SDS011;33524;55.434;38.520;2022-12-18T09:36:33;20.37;;;11.80;;
47760;SDS011;33524;55.434;38.520;2022-12-18T09:39:01;10.57;;;6.55;;
47760;SDS011;33524;55.434;38.520;2022-12-18T09:44:19;12.45;;;7.05;;
47760;SDS011;33524;55.434;38.520;2022-12-18T09:47:01;13.20;;;8.60;;
47760;SDS011;33524;55.434;38.520;2022-12-18T09:49:58;17.90;;;9.00;;
47760;SDS011;33524;55.434;38.520;2022-12-18T09:52:43;21.02;;;13.65;;
47760;SDS011;33524;55.434;38.520;2022-12-18T09:58:51;20.55;;;12.15;;
47760;SDS011;33524;55.434;38.520;2022-12-18T10:00:54;16.05;;;10.23;;
47760;SDS011;33524;55.434;38.520;2022-12-18T10:03:23;14.57;;;8.13;;
47760;SDS011;33524;55.434;38.520;2022-12-18T10:14:24;18.58;;;12.65;;
47760;SDS011;33524;55.434;38.520;2022-12-18T10:25:03;14.32;;;9.18;;
47760;SDS011;33524;55.434;38.520;2022-12-18T10:27:48;14.50;;;10.32;;
47760;SDS011;33524;55.434;38.520;2022-12-18T10:30:21;12.18;;;7.80;;
47760;SDS011;33524;55.434;38.520;2022-12-18T10:32:51;15.82;;;9.93;;
47760;SDS011;33524;55.434;38.520;2022-12-18T10:35:23;13.48;;;9.70;;
47760;SDS011;33524;55.434;38.520;2022-12-18T10:43:20;15.68;;;9.02;;
47760;SDS011;33524;55.434;38.520;2022-12-18T10:51:24;13.38;;;7.80;;
47760;SDS011;33524;55.434;38.520;2022-12-18T10:53:59;14.48;;;8.65;;
47760;SDS011;33524;55.434;38.520;2022-12-18T10:56:36;16.27;;;8.07;;
47760;SDS011;33524;55.434;38.520;2022-12-18T10:59:07;12.65;;;7.87;;
47760;SDS011;33524;55.434;38.520;2022-12-18T11:01:45;13.35;;;8.18;;
47760;SDS011;33524;55.434;38.520;2022-12-18T11:04:32;14.95;;;8.82;;
47760;SDS011;33524;55.434;38.520;2022-12-18T11:07:03;14.43;;;7.85;;
47760;SDS011;33524;55.434;38.520;2022-12-18T11:09:38;13.27;;;7.60;;
47760;SDS011;33524;55.434;38.520;2022-12-18T11:17:19;10.70;;;7.15;;
47760;SDS011;33524;55.434;38.520;2022-12-18T11:19:53;13.55;;;7.53;;
47760;SDS011;33524;55.434;38.520;2022-12-18T11:22:26;14.02;;;7.03;;
47760;SDS011;33524;55.434;38.520;2022-12-18T11:25:18;13.27;;;7.85;;
47760;SDS011;33524;55.434;38.520;2022-12-18T11:28:04;12.57;;;8.23;;
47760;SDS011;33524;55.434;38.520;2022-12-18T11:31:38;11.15;;;8.07;;
47760;SDS011;33524;55.434;38.520;2022-12-18T11:36:57;10.88;;;7.30;;
47760;SDS011;33524;55.434;38.520;2022-12-18T11:39:33;10.55;;;7.20;;
47760;SDS011;33524;55.434;38.520;2022-12-18T11:42:27;10.60;;;6.85;;
47760;SDS011;33524;55.434;38.520;2022-12-18T11:50:32;11.68;;;7.70;;
47760;SDS011;33524;55.434;38.520;2022-12-18T11:53:04;12.32;;;9.05;;
47760;SDS011;33524;55.434;38.520;2022-12-18T12:01:13;12.00;;;8.13;;
47760;SDS011;33524;55.434;38.520;2022-12-18T12:09:32;8.10;;;5.47;;
47760;SDS011;33524;55.434;38.520;2022-12-18T12:16:14;10.57;;;5.90;;
47760;SDS011;33524;55.434;38.520;2022-12-18T12:25:00;10.48;;;7.20;;
47760;SDS011;33524;55.434;38.520;2022-12-18T12:39:21;10.50;;;6.53;;
47760;SDS011;33524;55.434;38.520;2022-12-18T12:41:55;10.93;;;7.85;;
47760;SDS011;33524;55.434;38.520;2022-12-18T12:44:44;8.75;;;4.82;;
47760;SDS011;33524;55.434;38.520;2022-12-18T12:47:37;9.35;;;7.18;;
47760;SDS011;33524;55.434;38.520;2022-12-18T12:50:16;13.43;;;7.93;;
47760;SDS011;33524;55.434;38.520;2022-12-18T12:52:47;10.82;;;6.45;;
47760;SDS011;33524;55.434;38.520;2022-12-18T12:55:27;9.02;;;5.97;;
47760;SDS011;33524;55.434;38.520;2022-12-18T13:00:53;13.07;;;6.55;;
47760;SDS011;33524;55.434;38.520;2022-12-18T13:03:35;12.27;;;8.18;;
47760;SDS011;33524;55.434;38.520;2022-12-18T13:06:42;10.95;;;7.37;;
47760;SDS011;33524;55.434;38.520;2022-12-18T13:09:15;10.70;;;5.72;;
47760;SDS011;33524;55.434;38.520;2022-12-18T13:11:45;10.25;;;5.25;;
47760;SDS011;33524;55.434;38.520;2022-12-18T13:14:33;9.48;;;6.12;;
47760;SDS011;33524;55.434;38.520;2022-12-18T13:17:22;9.15;;;5.40;;
47760;SDS011;33524;55.434;38.520;2022-12-18T13:20:07;9.68;;;5.82;;
47760;SDS011;33524;55.434;38.520;2022-12-18T13:22:40;12.30;;;5.97;;
47760;SDS011;33524;55.434;38.520;2022-12-18T13:25:33;9.88;;;6.20;;
47760;SDS011;33524;55.434;38.520;2022-12-18T13:35:53;11.52;;;7.25;;
47760;SDS011;33524;55.434;38.520;2022-12-18T13:39:10;11.32;;;6.90;;
47760;SDS011;33524;55.434;38.520;2022-12-18T13:44:34;13.62;;;6.60;;
47760;SDS011;33524;55.434;38.520;2022-12-18T13:47:41;9.77;;;5.37;;
47760;SDS011;33524;55.434;38.520;2022-12-18T13:50:23;7.43;;;4.70;;
47760;SDS011;33524;55.434;38.520;2022-12-18T13:53:02;9.90;;;6.00;;
47760;SDS011;33524;55.434;38.520;2022-12-18T13:55:32;10.18;;;7.10;;
47760;SDS011;33524;55.434;38.520;2022-12-18T13:58:04;8.15;;;5.12;;
47760;SDS011;33524;55.434;38.520;2022-12-18T14:00:33;8.73;;;5.10;;
47760;SDS011;33524;55.434;38.520;2022-12-18T14:03:02;8.32;;;4.95;;
47760;SDS011;33524;55.434;38.520;2022-12-18T14:05:52;9.07;;;5.70;;
47760;SDS011;33524;55.434;38.520;2022-12-18T14:08:23;7.30;;;4.78;;
47760;SDS011;33524;55.434;38.520;2022-12-18T14:10:53;10.93;;;5.47;;
47760;SDS011;33524;55.434;38.520;2022-12-18T14:13:24;6.32;;;4.22;;
47760;SDS011;33524;55.434;38.520;2022-12-18T14:15:57;7.57;;;4.68;;
47760;SDS011;33524;55.434;38.520;2022-12-18T14:23:49;11.10;;;6.43;;
47760;SDS011;33524;55.434;38.520;2022-12-18T14:26:39;31.62;;;15.15;;
47760;SDS011;33524;55.434;38.520;2022-12-18T14:29:18;15.15;;;9.00;;
47760;SDS011;33524;55.434;38.520;2022-12-18T14:32:06;17.40;;;10.20;;
47760;SDS011;33524;55.434;38.520;2022-12-18T14:34:51;10.73;;;6.18;;
47760;SDS011;33524;55.434;38.520;2022-12-18T14:37:25;15.93;;;7.57;;
47760;SDS011;33524;55.434;38.520;2022-12-18T14:39:58;11.88;;;5.95;;
47760;SDS011;33524;55.434;38.520;2022-12-18T14:42:36;10.73;;;6.37;;
47760;SDS011;33524;55.434;38.520;2022-12-18T14:45:50;12.98;;;7.28;;
47760;SDS011;33524;55.434;38.520;2022-12-18T14:48:11;13.30;;;7.50;;
47760;SDS011;33524;55.434;38.520;2022-12-18T14:51:06;10.23;;;6.85;;
47760;SDS011;33524;55.434;38.520;2022-12-18T14:53:46;9.30;;;5.47;;
47760;SDS011;33524;55.434;38.520;2022-12-18T14:56:25;9.05;;;5.43;;
47760;SDS011;33524;55.434;38.520;2022-12-18T14:59:04;7.80;;;4.90;;
47760;SDS011;33524;55.434;38.520;2022-12-18T15:01:46;10.90;;;7.53;;
47760;SDS011;33524;55.434;38.520;2022-12-18T15:04:36;11.27;;;6.20;;
47760;SDS011;33524;55.434;38.520;2022-12-18T15:07:17;10.02;;;5.72;;
47760;SDS011;33524;55.434;38.520;2022-12-18T15:13:20;10.93;;;7.22;;
47760;SDS011;33524;55.434;38.520;2022-12-18T15:20:31;10.18;;;6.68;;
47760;SDS011;33524;55.434;38.520;2022-12-18T15:23:00;10.20;;;7.72;;
47760;SDS011;33524;55.434;38.520;2022-12-18T15:25:32;10.32;;;5.65;;
47760;SDS011;33524;55.434;38.520;2022-12-18T15:28:04;13.62;;;7.47;;
47760;SDS011;33524;55.434;38.520;2022-12-18T15:33:38;10.60;;;7.25;;
47760;SDS011;33524;55.434;38.520;2022-12-18T15:36:12;11.30;;;6.50;;
47760;SDS011;33524;55.434;38.520;2022-12-18T15:38:47;8.93;;;6.80;;
47760;SDS011;33524;55.434;38.520;2022-12-18T15:43:51;10.68;;;7.05;;
47760;SDS011;33524;55.434;38.520;2022-12-18T15:46:22;9.95;;;6.43;;
47760;SDS011;33524;55.434;38.520;2022-12-18T15:48:52;10.77;;;7.40;;
47760;SDS011;33524;55.434;38.520;2022-12-18T15:51:34;11.00;;;6.95;;
47760;SDS011;33524;55.434;38.520;2022-12-18T15:54:05;11.12;;;7.03;;
47760;SDS011;33524;55.434;38.520;2022-12-18T15:56:38;10.25;;;8.13;;
47760;SDS011;33524;55.434;38.520;2022-12-18T15:59:27;13.02;;;8.15;;
47760;SDS011;33524;55.434;38.520;2022-12-18T16:01:57;9.68;;;5.50;;
47760;SDS011;33524;55.434;38.520;2022-12-18T16:04:26;13.80;;;8.05;;
47760;SDS011;33524;55.434;38.520;2022-12-18T16:06:55;13.62;;;8.73;;
47760;SDS011;33524;55.434;38.520;2022-12-18T16:09:45;11.90;;;6.78;;
47760;SDS011;33524;55.434;38.520;2022-12-18T16:12:32;17.62;;;9.95;;
47760;SDS011;33524;55.434;38.520;2022-12-18T16:15:03;17.12;;;10.68;;
47760;SDS011;33524;55.434;38.520;2022-12-18T16:17:32;18.55;;;10.70;;
47760;SDS011;33524;55.434;38.520;2022-12-18T16:20:00;23.58;;;13.60;;
47760;SDS011;33524;55.434;38.520;2022-12-18T16:22:29;20.98;;;11.02;;
47760;SDS011;33524;55.434;38.520;2022-12-18T16:24:57;24.05;;;13.77;;
47760;SDS011;33524;55.434;38.520;2022-12-18T16:27:25;25.37;;;14.45;;
47760;SDS011;33524;55.434;38.520;2022-12-18T16:29:53;29.30;;;15.82;;
47760;SDS011;33524;55.434;38.520;2022-12-18T16:32:21;32.30;;;15.82;;
47760;SDS011;33524;55.434;38.520;2022-12-18T16:34:50;26.75;;;15.15;;
47760;SDS011;33524;55.434;38.520;2022-12-18T16:37:18;28.00;;;16.12;;
47760;SDS011;33524;55.434;38.520;2022-12-18T16:39:47;32.40;;;15.90;;
47760;SDS011;33524;55.434;38.520;2022-12-18T16:42:15;30.65;;;17.17;;
47760;SDS011;33524;55.434;38.520;2022-12-18T16:44:48;27.55;;;12.07;;
47760;SDS011;33524;55.434;38.520;2022-12-18T16:47:16;33.25;;;17.40;;
47760;SDS011;33524;55.434;38.520;2022-12-18T16:49:45;24.08;;;13.07;;
47760;SDS011;33524;55.434;38.520;2022-12-18T16:52:13;29.37;;;15.98;;
47760;SDS011;33524;55.434;38.520;2022-12-18T16:54:42;26.60;;;15.15;;
47760;SDS011;33524;55.434;38.520;2022-12-18T16:57:13;27.25;;;15.35;;
47760;SDS011;33524;55.434;38.520;2022-12-18T16:59:44;30.98;;;17.23;;
47760;SDS011;33524;55.434;38.520;2022-12-18T17:02:20;25.50;;;14.85;;
47760;SDS011;33524;55.434;38.520;2022-12-18T17:04:52;25.05;;;12.68;;
47760;SDS011;33524;55.434;38.520;2022-12-18T17:07:21;19.92;;;9.35;;
47760;SDS011;33524;55.434;38.520;2022-12-18T17:09:50;17.25;;;10.43;;
47760;SDS011;33524;55.434;38.520;2022-12-18T17:12:21;17.52;;;12.43;;
47760;SDS011;33524;55.434;38.520;2022-12-18T17:14:50;18.87;;;10.38;;
47760;SDS011;33524;55.434;38.520;2022-12-18T17:17:18;20.58;;;10.77;;